sensor_id;sensor_type;location;lat;lon;timestamp;P1;durP1;ratioP1;P2;durP2;ratioP2
59756;SDS011;45631;51.962;5.974;2022-12-20T00:01:27;6.13;;;3.08;;
59756;SDS011;45631;51.962;5.974;2022-12-20T00:03:59;5.82;;;2.80;;
59756;SDS011;45631;51.962;5.974;2022-12-20T00:06:28;5.85;;;2.95;;
59756;SDS011;45631;51.962;5.974;2022-12-20T00:08:58;6.53;;;2.80;;
59756;SDS011;45631;51.962;5.974;2022-12-20T00:11:28;4.93;;;2.80;;
59756;SDS011;45631;51.962;5.974;2022-12-20T00:13:56;5.72;;;2.47;;
59756;SDS011;45631;51.962;5.974;2022-12-20T00:16:25;4.47;;;2.53;;
59756;SDS011;45631;51.962;5.974;2022-12-20T00:18:55;10.73;;;3.15;;
59756;SDS011;45631;51.962;5.974;2022-12-20T00:21:27;5.85;;;2.55;;
59756;SDS011;45631;51.962;5.974;2022-12-20T00:23:56;5.65;;;2.60;;
59756;SDS011;45631;51.962;5.974;2022-12-20T00:26:25;5.30;;;2.53;;
59756;SDS011;45631;51.962;5.974;2022-12-20T00:28:54;6.80;;;2.60;;
59756;SDS011;45631;51.962;5.974;2022-12-20T00:31:23;5.38;;;2.60;;
59756;SDS011;45631;51.962;5.974;2022-12-20T00:33:53;4.70;;;2.45;;
59756;SDS011;45631;51.962;5.974;2022-12-20T00:36:24;6.13;;;2.47;;
59756;SDS011;45631;51.962;5.974;2022-12-20T00:38:54;6.80;;;2.67;;
59756;SDS011;45631;51.962;5.974;2022-12-20T00:41:23;4.63;;;2.45;;
59756;SDS011;45631;51.962;5.974;2022-12-20T00:43:53;4.63;;;2.72;;
59756;SDS011;45631;51.962;5.974;2022-12-20T00:46:21;6.97;;;2.20;;
59756;SDS011;45631;51.962;5.974;2022-12-20T00:48:50;4.57;;;2.50;;
59756;SDS011;45631;51.962;5.974;2022-12-20T00:51:20;6.07;;;2.40;;
59756;SDS011;45631;51.962;5.974;2022-12-20T00:53:51;7.07;;;2.42;;
59756;SDS011;45631;51.962;5.974;2022-12-20T00:56:19;5.55;;;2.30;;
59756;SDS011;45631;51.962;5.974;2022-12-20T00:58:48;5.88;;;2.33;;
59756;SDS011;45631;51.962;5.974;2022-12-20T01:01:17;8.98;;;2.50;;
59756;SDS011;45631;51.962;5.974;2022-12-20T01:03:48;5.85;;;2.28;;
59756;SDS011;45631;51.962;5.974;2022-12-20T01:06:17;4.68;;;2.20;;
59756;SDS011;45631;51.962;5.974;2022-12-20T01:08:45;5.57;;;2.30;;
59756;SDS011;45631;51.962;5.974;2022-12-20T01:11:16;5.60;;;2.38;;
59756;SDS011;45631;51.962;5.974;2022-12-20T01:13:46;5.20;;;2.83;;
59756;SDS011;45631;51.962;5.974;2022-12-20T01:16:17;6.25;;;2.30;;
59756;SDS011;45631;51.962;5.974;2022-12-20T01:18:48;6.65;;;2.40;;
59756;SDS011;45631;51.962;5.974;2022-12-20T01:21:17;5.55;;;2.40;;
59756;SDS011;45631;51.962;5.974;2022-12-20T01:23:46;5.43;;;2.58;;
59756;SDS011;45631;51.962;5.974;2022-12-20T01:26:16;5.65;;;2.30;;
59756;SDS011;45631;51.962;5.974;2022-12-20T01:31:18;4.97;;;2.20;;
59756;SDS011;45631;51.962;5.974;2022-12-20T01:33:47;5.85;;;2.30;;
59756;SDS011;45631;51.962;5.974;2022-12-20T01:36:17;5.50;;;2.33;;
59756;SDS011;45631;51.962;5.974;2022-12-20T01:38:47;7.25;;;2.90;;
59756;SDS011;45631;51.962;5.974;2022-12-20T01:41:17;4.85;;;2.20;;
59756;SDS011;45631;51.962;5.974;2022-12-20T01:43:48;5.03;;;2.05;;
59756;SDS011;45631;51.962;5.974;2022-12-20T01:46:19;6.03;;;2.08;;
59756;SDS011;45631;51.962;5.974;2022-12-20T01:48:49;3.80;;;2.30;;
59756;SDS011;45631;51.962;5.974;2022-12-20T01:51:20;4.43;;;2.45;;
59756;SDS011;45631;51.962;5.974;2022-12-20T01:53:50;6.75;;;2.50;;
59756;SDS011;45631;51.962;5.974;2022-12-20T01:56:24;5.85;;;2.20;;
59756;SDS011;45631;51.962;5.974;2022-12-20T01:58:53;5.53;;;2.67;;
59756;SDS011;45631;51.962;5.974;2022-12-20T02:01:23;7.18;;;2.70;;
59756;SDS011;45631;51.962;5.974;2022-12-20T02:03:51;6.05;;;2.90;;
59756;SDS011;45631;51.962;5.974;2022-12-20T02:06:22;7.18;;;3.05;;
59756;SDS011;45631;51.962;5.974;2022-12-20T02:08:52;6.22;;;2.80;;
59756;SDS011;45631;51.962;5.974;2022-12-20T02:11:35;8.02;;;2.80;;
59756;SDS011;45631;51.962;5.974;2022-12-20T02:14:13;5.25;;;2.60;;
59756;SDS011;45631;51.962;5.974;2022-12-20T02:16:58;8.13;;;3.03;;
59756;SDS011;45631;51.962;5.974;2022-12-20T02:19:43;6.75;;;3.13;;
59756;SDS011;45631;51.962;5.974;2022-12-20T02:22:28;6.13;;;2.95;;
59756;SDS011;45631;51.962;5.974;2022-12-20T02:25:13;5.57;;;3.13;;
59756;SDS011;45631;51.962;5.974;2022-12-20T02:27:58;6.65;;;3.35;;
59756;SDS011;45631;51.962;5.974;2022-12-20T02:30:32;7.15;;;3.40;;
59756;SDS011;45631;51.962;5.974;2022-12-20T02:33:05;7.32;;;3.22;;
59756;SDS011;45631;51.962;5.974;2022-12-20T02:35:37;6.80;;;3.53;;
59756;SDS011;45631;51.962;5.974;2022-12-20T02:40:53;6.93;;;3.55;;
59756;SDS011;45631;51.962;5.974;2022-12-20T02:43:25;9.68;;;4.07;;
59756;SDS011;45631;51.962;5.974;2022-12-20T02:46:12;8.43;;;4.03;;
59756;SDS011;45631;51.962;5.974;2022-12-20T02:48:44;10.23;;;4.00;;
59756;SDS011;45631;51.962;5.974;2022-12-20T02:51:37;11.68;;;4.57;;
59756;SDS011;45631;51.962;5.974;2022-12-20T02:54:06;8.50;;;3.70;;
59756;SDS011;45631;51.962;5.974;2022-12-20T02:56:35;9.50;;;4.20;;
59756;SDS011;45631;51.962;5.974;2022-12-20T02:59:10;7.90;;;3.97;;
59756;SDS011;45631;51.962;5.974;2022-12-20T03:01:43;7.38;;;3.47;;
59756;SDS011;45631;51.962;5.974;2022-12-20T03:04:14;7.72;;;4.15;;
59756;SDS011;45631;51.962;5.974;2022-12-20T03:06:54;6.22;;;3.47;;
59756;SDS011;45631;51.962;5.974;2022-12-20T03:09:24;7.35;;;3.70;;
59756;SDS011;45631;51.962;5.974;2022-12-20T03:11:52;7.95;;;3.65;;
59756;SDS011;45631;51.962;5.974;2022-12-20T03:14:20;7.85;;;4.03;;
59756;SDS011;45631;51.962;5.974;2022-12-20T03:16:49;8.75;;;3.92;;
59756;SDS011;45631;51.962;5.974;2022-12-20T03:19:18;7.10;;;3.90;;
59756;SDS011;45631;51.962;5.974;2022-12-20T03:21:46;8.45;;;4.35;;
59756;SDS011;45631;51.962;5.974;2022-12-20T03:24:14;8.40;;;4.55;;
59756;SDS011;45631;51.962;5.974;2022-12-20T03:26:42;12.98;;;5.63;;
59756;SDS011;45631;51.962;5.974;2022-12-20T03:29:10;9.85;;;5.13;;
59756;SDS011;45631;51.962;5.974;2022-12-20T03:31:39;9.02;;;5.13;;
59756;SDS011;45631;51.962;5.974;2022-12-20T03:34:08;9.32;;;5.53;;
59756;SDS011;45631;51.962;5.974;2022-12-20T03:36:37;9.82;;;5.70;;
59756;SDS011;45631;51.962;5.974;2022-12-20T03:39:05;9.25;;;5.30;;
59756;SDS011;45631;51.962;5.974;2022-12-20T03:41:33;9.05;;;5.80;;
59756;SDS011;45631;51.962;5.974;2022-12-20T03:44:02;8.90;;;5.30;;
59756;SDS011;45631;51.962;5.974;2022-12-20T03:46:30;9.82;;;5.97;;
59756;SDS011;45631;51.962;5.974;2022-12-20T03:48:58;9.23;;;5.55;;
59756;SDS011;45631;51.962;5.974;2022-12-20T03:51:28;9.48;;;5.30;;
59756;SDS011;45631;51.962;5.974;2022-12-20T03:53:56;8.38;;;4.38;;
59756;SDS011;45631;51.962;5.974;2022-12-20T03:56:24;8.55;;;4.60;;
59756;SDS011;45631;51.962;5.974;2022-12-20T03:58:52;8.15;;;4.70;;
59756;SDS011;45631;51.962;5.974;2022-12-20T04:01:21;10.63;;;4.43;;
59756;SDS011;45631;51.962;5.974;2022-12-20T04:03:51;11.25;;;4.75;;
59756;SDS011;45631;51.962;5.974;2022-12-20T04:06:19;8.27;;;4.40;;
59756;SDS011;45631;51.962;5.974;2022-12-20T04:08:50;8.35;;;3.92;;
59756;SDS011;45631;51.962;5.974;2022-12-20T04:11:18;9.63;;;4.30;;
59756;SDS011;45631;51.962;5.974;2022-12-20T04:13:46;7.72;;;4.85;;
59756;SDS011;45631;51.962;5.974;2022-12-20T04:16:17;8.52;;;4.70;;
59756;SDS011;45631;51.962;5.974;2022-12-20T04:18:47;9.77;;;4.63;;
59756;SDS011;45631;51.962;5.974;2022-12-20T04:21:15;8.13;;;4.20;;
59756;SDS011;45631;51.962;5.974;2022-12-20T04:23:50;8.05;;;3.53;;
59756;SDS011;45631;51.962;5.974;2022-12-20T04:26:18;8.90;;;4.60;;
59756;SDS011;45631;51.962;5.974;2022-12-20T04:28:46;7.95;;;3.78;;
59756;SDS011;45631;51.962;5.974;2022-12-20T04:31:14;7.00;;;3.78;;
59756;SDS011;45631;51.962;5.974;2022-12-20T04:33:49;9.57;;;3.90;;
59756;SDS011;45631;51.962;5.974;2022-12-20T04:36:18;6.38;;;3.65;;
59756;SDS011;45631;51.962;5.974;2022-12-20T04:38:46;5.88;;;3.63;;
59756;SDS011;45631;51.962;5.974;2022-12-20T04:41:16;8.13;;;3.70;;
59756;SDS011;45631;51.962;5.974;2022-12-20T04:43:49;10.13;;;3.92;;
59756;SDS011;45631;51.962;5.974;2022-12-20T04:46:18;8.40;;;3.40;;
59756;SDS011;45631;51.962;5.974;2022-12-20T04:48:46;7.57;;;3.75;;
59756;SDS011;45631;51.962;5.974;2022-12-20T04:51:24;8.05;;;3.30;;
59756;SDS011;45631;51.962;5.974;2022-12-20T04:53:53;7.05;;;3.25;;
59756;SDS011;45631;51.962;5.974;2022-12-20T04:56:23;7.93;;;3.20;;
59756;SDS011;45631;51.962;5.974;2022-12-20T04:58:53;8.02;;;3.17;;
59756;SDS011;45631;51.962;5.974;2022-12-20T05:01:26;6.93;;;3.13;;
59756;SDS011;45631;51.962;5.974;2022-12-20T05:03:54;6.00;;;3.10;;
59756;SDS011;45631;51.962;5.974;2022-12-20T05:06:23;6.72;;;3.10;;
59756;SDS011;45631;51.962;5.974;2022-12-20T05:08:51;7.50;;;3.30;;
59756;SDS011;45631;51.962;5.974;2022-12-20T05:11:22;5.65;;;3.13;;
59756;SDS011;45631;51.962;5.974;2022-12-20T05:13:50;7.10;;;2.95;;
59756;SDS011;45631;51.962;5.974;2022-12-20T05:16:18;7.43;;;3.28;;
59756;SDS011;45631;51.962;5.974;2022-12-20T05:18:46;6.03;;;2.80;;
59756;SDS011;45631;51.962;5.974;2022-12-20T05:21:15;6.93;;;2.92;;
59756;SDS011;45631;51.962;5.974;2022-12-20T05:24:01;6.50;;;2.78;;
59756;SDS011;45631;51.962;5.974;2022-12-20T05:26:47;7.40;;;3.10;;
59756;SDS011;45631;51.962;5.974;2022-12-20T05:29:16;8.02;;;3.30;;
59756;SDS011;45631;51.962;5.974;2022-12-20T05:31:44;9.57;;;3.40;;
59756;SDS011;45631;51.962;5.974;2022-12-20T05:34:13;8.32;;;3.58;;
59756;SDS011;45631;51.962;5.974;2022-12-20T05:36:41;11.80;;;3.20;;
59756;SDS011;45631;51.962;5.974;2022-12-20T05:39:09;6.82;;;3.00;;
59756;SDS011;45631;51.962;5.974;2022-12-20T05:41:38;9.63;;;3.60;;
59756;SDS011;45631;51.962;5.974;2022-12-20T05:44:08;8.88;;;3.33;;
59756;SDS011;45631;51.962;5.974;2022-12-20T05:46:36;8.00;;;3.40;;
59756;SDS011;45631;51.962;5.974;2022-12-20T05:49:04;7.40;;;3.30;;
59756;SDS011;45631;51.962;5.974;2022-12-20T05:51:32;6.45;;;3.17;;
59756;SDS011;45631;51.962;5.974;2022-12-20T05:54:00;7.43;;;3.50;;
59756;SDS011;45631;51.962;5.974;2022-12-20T05:56:28;7.22;;;3.30;;
59756;SDS011;45631;51.962;5.974;2022-12-20T05:58:57;7.00;;;3.28;;
59756;SDS011;45631;51.962;5.974;2022-12-20T06:01:26;9.00;;;3.80;;
59756;SDS011;45631;51.962;5.974;2022-12-20T06:03:55;8.40;;;3.53;;
59756;SDS011;45631;51.962;5.974;2022-12-20T06:06:23;6.75;;;3.05;;
59756;SDS011;45631;51.962;5.974;2022-12-20T06:08:54;6.20;;;2.97;;
59756;SDS011;45631;51.962;5.974;2022-12-20T06:11:22;6.22;;;3.08;;
59756;SDS011;45631;51.962;5.974;2022-12-20T06:13:55;7.18;;;3.72;;
59756;SDS011;45631;51.962;5.974;2022-12-20T06:16:26;8.25;;;3.85;;
59756;SDS011;45631;51.962;5.974;2022-12-20T06:18:54;9.52;;;3.92;;
59756;SDS011;45631;51.962;5.974;2022-12-20T06:21:23;6.88;;;3.92;;
59756;SDS011;45631;51.962;5.974;2022-12-20T06:23:53;11.07;;;4.00;;
59756;SDS011;45631;51.962;5.974;2022-12-20T06:26:21;7.75;;;4.15;;
59756;SDS011;45631;51.962;5.974;2022-12-20T06:28:49;8.35;;;3.95;;
59756;SDS011;45631;51.962;5.974;2022-12-20T06:31:20;9.35;;;3.85;;
59756;SDS011;45631;51.962;5.974;2022-12-20T06:33:52;8.88;;;4.00;;
59756;SDS011;45631;51.962;5.974;2022-12-20T06:36:20;8.25;;;3.85;;
59756;SDS011;45631;51.962;5.974;2022-12-20T06:38:48;7.95;;;3.47;;
59756;SDS011;45631;51.962;5.974;2022-12-20T06:41:19;8.65;;;4.00;;
59756;SDS011;45631;51.962;5.974;2022-12-20T06:43:47;7.85;;;3.65;;
59756;SDS011;45631;51.962;5.974;2022-12-20T06:46:15;7.57;;;3.88;;
59756;SDS011;45631;51.962;5.974;2022-12-20T06:48:44;9.48;;;3.70;;
59756;SDS011;45631;51.962;5.974;2022-12-20T06:51:13;8.85;;;3.42;;
59756;SDS011;45631;51.962;5.974;2022-12-20T06:53:42;11.77;;;3.50;;
59756;SDS011;45631;51.962;5.974;2022-12-20T06:56:10;7.93;;;3.30;;
59756;SDS011;45631;51.962;5.974;2022-12-20T06:58:39;7.20;;;3.20;;
59756;SDS011;45631;51.962;5.974;2022-12-20T07:01:07;6.90;;;3.15;;
59756;SDS011;45631;51.962;5.974;2022-12-20T07:03:35;9.55;;;3.58;;
59756;SDS011;45631;51.962;5.974;2022-12-20T07:06:03;8.32;;;3.22;;
59756;SDS011;45631;51.962;5.974;2022-12-20T07:08:33;6.35;;;3.20;;
59756;SDS011;45631;51.962;5.974;2022-12-20T07:11:02;7.20;;;2.78;;
59756;SDS011;45631;51.962;5.974;2022-12-20T07:13:31;7.30;;;3.50;;
59756;SDS011;45631;51.962;5.974;2022-12-20T07:16:00;9.45;;;2.97;;
59756;SDS011;45631;51.962;5.974;2022-12-20T07:18:29;6.18;;;2.60;;
59756;SDS011;45631;51.962;5.974;2022-12-20T07:20:58;8.50;;;3.47;;
59756;SDS011;45631;51.962;5.974;2022-12-20T07:23:27;5.57;;;2.65;;
59756;SDS011;45631;51.962;5.974;2022-12-20T07:25:57;4.72;;;2.80;;
59756;SDS011;45631;51.962;5.974;2022-12-20T07:28:27;5.40;;;2.50;;
59756;SDS011;45631;51.962;5.974;2022-12-20T07:30:58;8.02;;;2.88;;
59756;SDS011;45631;51.962;5.974;2022-12-20T07:33:27;6.13;;;2.67;;
59756;SDS011;45631;51.962;5.974;2022-12-20T07:35:58;7.18;;;2.80;;
59756;SDS011;45631;51.962;5.974;2022-12-20T07:38:27;6.40;;;2.90;;
59756;SDS011;45631;51.962;5.974;2022-12-20T07:41:00;6.30;;;2.80;;
59756;SDS011;45631;51.962;5.974;2022-12-20T07:43:33;4.80;;;2.80;;
59756;SDS011;45631;51.962;5.974;2022-12-20T07:46:02;4.30;;;2.42;;
59756;SDS011;45631;51.962;5.974;2022-12-20T07:48:32;5.18;;;2.60;;
59756;SDS011;45631;51.962;5.974;2022-12-20T07:51:05;6.20;;;2.60;;
59756;SDS011;45631;51.962;5.974;2022-12-20T07:53:36;5.18;;;2.60;;
59756;SDS011;45631;51.962;5.974;2022-12-20T07:56:10;7.35;;;2.53;;
59756;SDS011;45631;51.962;5.974;2022-12-20T07:58:41;6.67;;;2.90;;
59756;SDS011;45631;51.962;5.974;2022-12-20T08:01:10;9.60;;;3.15;;
59756;SDS011;45631;51.962;5.974;2022-12-20T08:03:41;7.82;;;2.95;;
59756;SDS011;45631;51.962;5.974;2022-12-20T08:08:42;7.53;;;2.72;;
59756;SDS011;45631;51.962;5.974;2022-12-20T08:11:15;12.20;;;4.30;;
59756;SDS011;45631;51.962;5.974;2022-12-20T08:13:47;11.05;;;4.00;;
59756;SDS011;45631;51.962;5.974;2022-12-20T08:16:25;13.57;;;4.57;;
59756;SDS011;45631;51.962;5.974;2022-12-20T08:18:53;6.65;;;2.80;;
59756;SDS011;45631;51.962;5.974;2022-12-20T08:21:21;9.23;;;2.78;;
59756;SDS011;45631;51.962;5.974;2022-12-20T08:23:49;4.95;;;2.55;;
59756;SDS011;45631;51.962;5.974;2022-12-20T08:26:19;6.70;;;2.45;;
59756;SDS011;45631;51.962;5.974;2022-12-20T08:28:47;4.65;;;2.13;;
59756;SDS011;45631;51.962;5.974;2022-12-20T08:31:15;9.18;;;4.15;;
59756;SDS011;45631;51.962;5.974;2022-12-20T08:33:43;8.23;;;3.58;;
59756;SDS011;45631;51.962;5.974;2022-12-20T08:36:12;8.95;;;2.42;;
59756;SDS011;45631;51.962;5.974;2022-12-20T08:38:40;5.63;;;2.45;;
59756;SDS011;45631;51.962;5.974;2022-12-20T08:41:09;13.38;;;6.68;;
59756;SDS011;45631;51.962;5.974;2022-12-20T08:43:40;5.55;;;2.45;;
59756;SDS011;45631;51.962;5.974;2022-12-20T08:46:09;7.75;;;2.83;;
59756;SDS011;45631;51.962;5.974;2022-12-20T08:48:38;9.45;;;3.25;;
59756;SDS011;45631;51.962;5.974;2022-12-20T08:51:07;7.72;;;2.83;;
59756;SDS011;45631;51.962;5.974;2022-12-20T08:53:37;5.55;;;2.33;;
59756;SDS011;45631;51.962;5.974;2022-12-20T08:56:09;8.77;;;2.70;;
59756;SDS011;45631;51.962;5.974;2022-12-20T08:58:40;7.20;;;2.45;;
59756;SDS011;45631;51.962;5.974;2022-12-20T09:01:10;7.63;;;2.65;;
59756;SDS011;45631;51.962;5.974;2022-12-20T09:03:40;6.00;;;2.30;;
59756;SDS011;45631;51.962;5.974;2022-12-20T09:06:09;4.72;;;2.20;;
59756;SDS011;45631;51.962;5.974;2022-12-20T09:08:39;6.93;;;2.58;;
59756;SDS011;45631;51.962;5.974;2022-12-20T09:11:08;6.28;;;2.33;;
59756;SDS011;45631;51.962;5.974;2022-12-20T09:13:38;6.45;;;3.25;;
59756;SDS011;45631;51.962;5.974;2022-12-20T09:16:11;6.18;;;2.90;;
59756;SDS011;45631;51.962;5.974;2022-12-20T09:18:40;7.30;;;2.85;;
59756;SDS011;45631;51.962;5.974;2022-12-20T09:21:10;7.95;;;2.80;;
59756;SDS011;45631;51.962;5.974;2022-12-20T09:23:38;9.23;;;2.80;;
59756;SDS011;45631;51.962;5.974;2022-12-20T09:26:09;6.78;;;2.83;;
59756;SDS011;45631;51.962;5.974;2022-12-20T09:28:39;6.50;;;2.92;;
59756;SDS011;45631;51.962;5.974;2022-12-20T09:31:09;6.30;;;2.80;;
59756;SDS011;45631;51.962;5.974;2022-12-20T09:33:39;6.82;;;3.03;;
59756;SDS011;45631;51.962;5.974;2022-12-20T09:36:09;7.22;;;2.72;;
59756;SDS011;45631;51.962;5.974;2022-12-20T09:38:38;7.70;;;2.90;;
59756;SDS011;45631;51.962;5.974;2022-12-20T09:41:15;8.40;;;2.80;;
59756;SDS011;45631;51.962;5.974;2022-12-20T09:43:53;6.13;;;2.80;;
59756;SDS011;45631;51.962;5.974;2022-12-20T09:46:22;6.97;;;2.95;;
59756;SDS011;45631;51.962;5.974;2022-12-20T09:48:52;7.57;;;2.72;;
59756;SDS011;45631;51.962;5.974;2022-12-20T09:51:26;6.97;;;3.03;;
59756;SDS011;45631;51.962;5.974;2022-12-20T09:54:07;7.18;;;2.58;;
59756;SDS011;45631;51.962;5.974;2022-12-20T09:56:46;5.50;;;2.83;;
59756;SDS011;45631;51.962;5.974;2022-12-20T09:59:24;7.18;;;2.63;;
59756;SDS011;45631;51.962;5.974;2022-12-20T10:01:53;7.38;;;2.83;;
59756;SDS011;45631;51.962;5.974;2022-12-20T10:04:24;7.88;;;2.60;;
59756;SDS011;45631;51.962;5.974;2022-12-20T10:07:02;6.40;;;2.70;;
59756;SDS011;45631;51.962;5.974;2022-12-20T10:09:41;5.13;;;2.60;;
59756;SDS011;45631;51.962;5.974;2022-12-20T10:12:25;6.65;;;2.90;;
59756;SDS011;45631;51.962;5.974;2022-12-20T10:15:13;6.68;;;2.95;;
59756;SDS011;45631;51.962;5.974;2022-12-20T10:17:49;8.27;;;3.00;;
59756;SDS011;45631;51.962;5.974;2022-12-20T10:20:40;17.48;;;5.63;;
59756;SDS011;45631;51.962;5.974;2022-12-20T10:23:21;5.40;;;2.90;;
59756;SDS011;45631;51.962;5.974;2022-12-20T10:25:59;5.47;;;2.75;;
59756;SDS011;45631;51.962;5.974;2022-12-20T10:28:28;10.98;;;3.30;;
59756;SDS011;45631;51.962;5.974;2022-12-20T10:30:59;7.82;;;2.85;;
59756;SDS011;45631;51.962;5.974;2022-12-20T10:33:29;6.80;;;2.58;;
59756;SDS011;45631;51.962;5.974;2022-12-20T10:38:53;7.88;;;2.75;;
59756;SDS011;45631;51.962;5.974;2022-12-20T10:41:23;9.07;;;2.80;;
59756;SDS011;45631;51.962;5.974;2022-12-20T10:43:55;7.53;;;3.28;;
59756;SDS011;45631;51.962;5.974;2022-12-20T10:52:10;7.35;;;3.15;;
59756;SDS011;45631;51.962;5.974;2022-12-20T10:54:40;6.78;;;2.97;;
59756;SDS011;45631;51.962;5.974;2022-12-20T10:57:14;7.63;;;3.30;;
59756;SDS011;45631;51.962;5.974;2022-12-20T10:59:48;6.90;;;3.60;;
59756;SDS011;45631;51.962;5.974;2022-12-20T11:02:25;6.95;;;3.40;;
59756;SDS011;45631;51.962;5.974;2022-12-20T11:05:17;8.32;;;3.30;;
59756;SDS011;45631;51.962;5.974;2022-12-20T11:07:52;7.18;;;3.42;;
59756;SDS011;45631;51.962;5.974;2022-12-20T11:10:42;7.45;;;3.58;;
59756;SDS011;45631;51.962;5.974;2022-12-20T11:13:21;6.43;;;3.20;;
59756;SDS011;45631;51.962;5.974;2022-12-20T11:15:52;8.38;;;3.58;;
59756;SDS011;45631;51.962;5.974;2022-12-20T11:18:34;6.88;;;3.50;;
59756;SDS011;45631;51.962;5.974;2022-12-20T11:21:13;7.90;;;3.47;;
59756;SDS011;45631;51.962;5.974;2022-12-20T11:23:56;7.20;;;3.33;;
59756;SDS011;45631;51.962;5.974;2022-12-20T11:26:33;6.80;;;3.58;;
59756;SDS011;45631;51.962;5.974;2022-12-20T11:29:13;7.68;;;3.60;;
59756;SDS011;45631;51.962;5.974;2022-12-20T11:31:55;8.07;;;3.53;;
59756;SDS011;45631;51.962;5.974;2022-12-20T11:34:34;6.90;;;3.35;;
59756;SDS011;45631;51.962;5.974;2022-12-20T11:37:16;8.88;;;3.40;;
59756;SDS011;45631;51.962;5.974;2022-12-20T11:39:49;8.55;;;4.13;;
59756;SDS011;45631;51.962;5.974;2022-12-20T11:42:34;7.95;;;3.45;;
59756;SDS011;45631;51.962;5.974;2022-12-20T11:45:14;9.52;;;3.70;;
59756;SDS011;45631;51.962;5.974;2022-12-20T11:47:56;10.68;;;3.78;;
59756;SDS011;45631;51.962;5.974;2022-12-20T11:53:42;6.93;;;3.40;;
59756;SDS011;45631;51.962;5.974;2022-12-20T11:56:16;7.60;;;3.58;;
59756;SDS011;45631;51.962;5.974;2022-12-20T11:58:49;7.68;;;3.72;;
59756;SDS011;45631;51.962;5.974;2022-12-20T12:01:20;7.53;;;3.75;;
59756;SDS011;45631;51.962;5.974;2022-12-20T12:03:58;7.47;;;3.67;;
59756;SDS011;45631;51.962;5.974;2022-12-20T12:06:33;8.77;;;3.70;;
59756;SDS011;45631;51.962;5.974;2022-12-20T12:09:07;9.32;;;3.70;;
59756;SDS011;45631;51.962;5.974;2022-12-20T12:11:43;8.32;;;4.10;;
59756;SDS011;45631;51.962;5.974;2022-12-20T12:14:37;11.27;;;4.25;;
59756;SDS011;45631;51.962;5.974;2022-12-20T12:17:16;8.07;;;3.85;;
59756;SDS011;45631;51.962;5.974;2022-12-20T12:19:50;8.02;;;3.92;;
59756;SDS011;45631;51.962;5.974;2022-12-20T12:22:27;6.68;;;3.47;;
59756;SDS011;45631;51.962;5.974;2022-12-20T12:24:59;7.65;;;4.00;;
59756;SDS011;45631;51.962;5.974;2022-12-20T12:27:35;9.20;;;4.35;;
59756;SDS011;45631;51.962;5.974;2022-12-20T12:30:05;9.23;;;4.40;;
59756;SDS011;45631;51.962;5.974;2022-12-20T12:32:39;11.82;;;4.28;;
59756;SDS011;45631;51.962;5.974;2022-12-20T12:35:20;8.77;;;3.58;;
59756;SDS011;45631;51.962;5.974;2022-12-20T12:38:19;8.05;;;3.92;;
59756;SDS011;45631;51.962;5.974;2022-12-20T12:41:13;9.38;;;3.97;;
59756;SDS011;45631;51.962;5.974;2022-12-20T12:44:21;7.90;;;4.30;;
59756;SDS011;45631;51.962;5.974;2022-12-20T12:47:01;9.50;;;3.72;;
59756;SDS011;45631;51.962;5.974;2022-12-20T12:49:32;7.07;;;4.07;;
59756;SDS011;45631;51.962;5.974;2022-12-20T12:52:02;8.32;;;3.70;;
59756;SDS011;45631;51.962;5.974;2022-12-20T12:54:35;8.07;;;3.80;;
59756;SDS011;45631;51.962;5.974;2022-12-20T12:57:06;8.88;;;3.80;;
59756;SDS011;45631;51.962;5.974;2022-12-20T12:59:40;7.95;;;3.85;;
59756;SDS011;45631;51.962;5.974;2022-12-20T13:08:00;7.20;;;3.95;;
59756;SDS011;45631;51.962;5.974;2022-12-20T13:13:26;7.97;;;4.30;;
59756;SDS011;45631;51.962;5.974;2022-12-20T13:19:16;7.20;;;4.15;;
59756;SDS011;45631;51.962;5.974;2022-12-20T13:21:56;8.52;;;4.35;;
59756;SDS011;45631;51.962;5.974;2022-12-20T13:24:33;6.80;;;3.83;;
59756;SDS011;45631;51.962;5.974;2022-12-20T13:27:14;9.57;;;4.45;;
59756;SDS011;45631;51.962;5.974;2022-12-20T13:33:02;9.98;;;4.30;;
59756;SDS011;45631;51.962;5.974;2022-12-20T13:35:55;9.30;;;5.00;;
59756;SDS011;45631;51.962;5.974;2022-12-20T13:44:20;8.95;;;5.10;;
59756;SDS011;45631;51.962;5.974;2022-12-20T13:47:11;8.77;;;4.55;;
59756;SDS011;45631;51.962;5.974;2022-12-20T13:52:26;8.13;;;4.45;;
59756;SDS011;45631;51.962;5.974;2022-12-20T13:54:57;7.53;;;4.63;;
59756;SDS011;45631;51.962;5.974;2022-12-20T13:57:28;7.47;;;4.43;;
59756;SDS011;45631;51.962;5.974;2022-12-20T14:00:00;8.43;;;4.68;;
59756;SDS011;45631;51.962;5.974;2022-12-20T14:02:39;8.65;;;5.20;;
59756;SDS011;45631;51.962;5.974;2022-12-20T14:05:13;8.55;;;5.03;;
59756;SDS011;45631;51.962;5.974;2022-12-20T14:07:45;8.20;;;4.75;;
59756;SDS011;45631;51.962;5.974;2022-12-20T14:10:18;8.00;;;4.72;;
59756;SDS011;45631;51.962;5.974;2022-12-20T14:12:49;8.25;;;5.30;;
59756;SDS011;45631;51.962;5.974;2022-12-20T14:15:29;8.77;;;5.13;;
59756;SDS011;45631;51.962;5.974;2022-12-20T14:18:03;10.32;;;5.63;;
59756;SDS011;45631;51.962;5.974;2022-12-20T14:20:32;10.13;;;4.72;;
59756;SDS011;45631;51.962;5.974;2022-12-20T14:23:03;7.88;;;4.97;;
59756;SDS011;45631;51.962;5.974;2022-12-20T14:25:35;8.35;;;4.90;;
59756;SDS011;45631;51.962;5.974;2022-12-20T14:28:14;10.00;;;5.43;;
59756;SDS011;45631;51.962;5.974;2022-12-20T14:30:54;8.63;;;5.53;;
59756;SDS011;45631;51.962;5.974;2022-12-20T14:33:25;9.18;;;5.30;;
59756;SDS011;45631;51.962;5.974;2022-12-20T14:36:15;8.40;;;5.15;;
59756;SDS011;45631;51.962;5.974;2022-12-20T14:38:46;10.82;;;5.00;;
59756;SDS011;45631;51.962;5.974;2022-12-20T14:41:28;8.55;;;5.22;;
59756;SDS011;45631;51.962;5.974;2022-12-20T14:44:00;9.13;;;6.38;;
59756;SDS011;45631;51.962;5.974;2022-12-20T14:46:34;10.82;;;5.30;;
59756;SDS011;45631;51.962;5.974;2022-12-20T14:49:15;7.90;;;5.25;;
59756;SDS011;45631;51.962;5.974;2022-12-20T14:51:48;8.57;;;5.10;;
59756;SDS011;45631;51.962;5.974;2022-12-20T14:54:17;8.55;;;5.35;;
59756;SDS011;45631;51.962;5.974;2022-12-20T14:57:09;9.30;;;5.22;;
59756;SDS011;45631;51.962;5.974;2022-12-20T14:59:56;9.18;;;5.45;;
59756;SDS011;45631;51.962;5.974;2022-12-20T15:02:32;9.45;;;5.70;;
59756;SDS011;45631;51.962;5.974;2022-12-20T15:08:11;8.70;;;5.57;;
59756;SDS011;45631;51.962;5.974;2022-12-20T15:10:41;8.32;;;5.47;;
59756;SDS011;45631;51.962;5.974;2022-12-20T15:13:14;8.63;;;5.43;;
59756;SDS011;45631;51.962;5.974;2022-12-20T15:15:44;8.40;;;5.07;;
59756;SDS011;45631;51.962;5.974;2022-12-20T15:18:14;10.45;;;5.53;;
59756;SDS011;45631;51.962;5.974;2022-12-20T15:20:47;11.13;;;5.88;;
59756;SDS011;45631;51.962;5.974;2022-12-20T15:23:19;9.10;;;5.35;;
59756;SDS011;45631;51.962;5.974;2022-12-20T15:25:51;7.97;;;5.68;;
59756;SDS011;45631;51.962;5.974;2022-12-20T15:28:20;9.73;;;5.75;;
59756;SDS011;45631;51.962;5.974;2022-12-20T15:30:49;9.35;;;5.90;;
59756;SDS011;45631;51.962;5.974;2022-12-20T15:33:21;8.98;;;6.20;;
59756;SDS011;45631;51.962;5.974;2022-12-20T15:35:50;9.25;;;6.28;;
59756;SDS011;45631;51.962;5.974;2022-12-20T15:38:21;10.38;;;6.70;;
59756;SDS011;45631;51.962;5.974;2022-12-20T15:41:12;8.52;;;5.70;;
59756;SDS011;45631;51.962;5.974;2022-12-20T15:43:45;7.97;;;5.90;;
59756;SDS011;45631;51.962;5.974;2022-12-20T15:46:14;8.50;;;6.38;;
59756;SDS011;45631;51.962;5.974;2022-12-20T15:48:44;9.10;;;6.13;;
59756;SDS011;45631;51.962;5.974;2022-12-20T15:51:13;9.88;;;7.20;;
59756;SDS011;45631;51.962;5.974;2022-12-20T15:53:44;10.30;;;6.80;;
59756;SDS011;45631;51.962;5.974;2022-12-20T15:56:15;8.60;;;6.47;;
59756;SDS011;45631;51.962;5.974;2022-12-20T15:58:47;11.45;;;6.75;;
59756;SDS011;45631;51.962;5.974;2022-12-20T16:01:19;9.73;;;7.03;;
59756;SDS011;45631;51.962;5.974;2022-12-20T16:03:51;11.07;;;7.10;;